Frank T. Stegbauer — WDE5944 — position and weather

sailwx.info

Track history (hours):
 
Tides and Currents Weather Stations Pressure Air Temp Water Temp Dewpoint Dewpoint Depression Visibility Wind Speed Wind Dir Waves Ship Positions

Frank T. Stegbauer

Owner: SOUTHERN TOWING COMPANY LLC., Memphis, TN. More information available from US FCC via Universal Licensing System and Coast Guard Vessel Documentation Center.

Last reported at 2016-Jan-02 17:31 UTC. Time now 2016-Feb-09 11:54 UTC.
Position N 32°36' W 091°08'.
Warning: this ship's position is 37 days out of date.

Length 35 m; draft 8.6 m.

Type: Tug. MMSI: 367373640.

Date/timePositionNaut miles runAvg speedWind from/ knotsBaromVisibWave heightAir tempDewpointWater temp
2016-Jan-02 17:31N 32°36' W 091°08'4 4.0
2016-Jan-02 16:31N 32°32' W 091°06'4 3.8
2016-Jan-02 15:33N 32°29' W 091°07'4 4.2
2016-Jan-02 14:33N 32°26' W 091°03'4 3.6
2016-Jan-02 13:33N 32°24' W 090°59'3 2.8
2016-Jan-02 12:33N 32°21' W 090°59'3 3.5
2016-Jan-02 11:33N 32°21' W 090°55'3 3.2
2016-Jan-02 10:33N 32°17' W 090°56'4 3.9
2016-Jan-02 09:33N 32°14' W 090°59'4 4.2
2016-Jan-02 08:33N 32°10' W 090°60'4 3.5
2016-Jan-02 07:33N 32°07' W 091°02'4 3.6
2016-Jan-02 06:33N 32°07' W 091°07'5 4.3
2016-Jan-02 05:27N 32°03' W 091°04'  
Track history (hours):
 
Tides and Currents Weather Stations Pressure Air Temp Water Temp Dewpoint Dewpoint Depression Visibility Wind Speed Wind Dir Waves Ship Positions

Frank T. Stegbauer

Owner: SOUTHERN TOWING COMPANY LLC., Memphis, TN. More information available from US FCC via Universal Licensing System and Coast Guard Vessel Documentation Center.

Last reported at 2016-Jan-02 17:31 UTC. Time now 2016-Feb-09 11:54 UTC.
Position N 32°36' W 091°08'.
Warning: this ship's position is 37 days out of date.

Length 35 m; draft 8.6 m.

Type: Tug. MMSI: 367373640.

Date/timePositionNaut miles runAvg speedWind from/ knotsBaromVisibWave heightAir tempDewpointWater temp
2016-Jan-02 17:31N 32°36' W 091°08'4 4.0
2016-Jan-02 16:31N 32°32' W 091°06'4 3.8
2016-Jan-02 15:33N 32°29' W 091°07'4 4.2
2016-Jan-02 14:33N 32°26' W 091°03'4 3.6
2016-Jan-02 13:33N 32°24' W 090°59'3 2.8
2016-Jan-02 12:33N 32°21' W 090°59'3 3.5
2016-Jan-02 11:33N 32°21' W 090°55'3 3.2
2016-Jan-02 10:33N 32°17' W 090°56'4 3.9
2016-Jan-02 09:33N 32°14' W 090°59'4 4.2
2016-Jan-02 08:33N 32°10' W 090°60'4 3.5
2016-Jan-02 07:33N 32°07' W 091°02'4 3.6
2016-Jan-02 06:33N 32°07' W 091°07'5 4.3
2016-Jan-02 05:27N 32°03' W 091°04'  

Dump ship's entire track history